createdAt,value
2022-09-07T00:01:04.741Z,63.14
2022-09-07T00:03:49.486Z,63.04
2022-09-07T00:06:34.884Z,62.76
2022-09-07T00:09:37.463Z,62.50
2022-09-07T00:12:16.803Z,62.37
2022-09-07T00:15:14.545Z,62.21
2022-09-07T00:18:04.003Z,62.02
2022-09-07T00:20:41.735Z,61.58
2022-09-07T00:24:04.120Z,61.36
2022-09-07T00:27:33.570Z,61.60
2022-09-07T00:30:22.756Z,61.47
2022-09-07T00:33:13.759Z,61.34
2022-09-07T00:36:03.650Z,61.17
2022-09-07T00:39:04.487Z,61.13
2022-09-07T00:42:01.945Z,61.56
2022-09-07T00:45:11.126Z,61.68
2022-09-07T00:48:17.460Z,61.79
2022-09-07T00:51:25.150Z,62.10
2022-09-07T00:54:37.457Z,62.53
2022-09-07T00:57:50.121Z,62.71
2022-09-07T01:01:02.010Z,62.65
2022-09-07T01:04:03.523Z,62.73
2022-09-07T01:07:05.881Z,63.04
2022-09-07T01:10:18.568Z,62.95
2022-09-07T01:12:58.878Z,63.20
2022-09-07T01:16:07.260Z,63.07
2022-09-07T01:19:23.701Z,63.13
2022-09-07T01:22:29.115Z,63.00
2022-09-07T01:25:33.321Z,63.13
2022-09-07T01:28:33.490Z,63.11
2022-09-07T01:32:11.704Z,63.19
2022-09-07T01:35:15.126Z,63.53
2022-09-07T01:38:45.538Z,63.43
2022-09-07T01:41:59.078Z,63.43
2022-09-07T01:45:03.297Z,63.39
2022-09-07T01:48:32.087Z,63.48
2022-09-07T01:51:11.526Z,63.49
2022-09-07T01:54:24.860Z,63.46
2022-09-07T02:13:06.658Z,63.52
2022-09-07T02:16:01.758Z,63.80
2022-09-07T02:19:31.011Z,64.04
2022-09-07T02:22:32.238Z,63.99
2022-09-07T02:26:17.599Z,63.90
2022-09-07T02:30:00.014Z,63.80
2022-09-07T02:32:45.494Z,64.00
2022-09-07T02:35:34.249Z,64.25
2022-09-07T02:50:14.997Z,64.31
2022-09-07T02:53:28.459Z,64.22
2022-09-07T02:57:00.532Z,64.08
2022-09-07T03:00:32.082Z,64.21
2022-09-07T03:03:41.811Z,64.19
2022-09-07T03:06:32.477Z,64.11
2022-09-07T03:25:59.439Z,63.62
2022-09-07T03:29:01.641Z,63.83
2022-09-07T03:32:44.669Z,64.05
2022-09-07T03:36:07.730Z,64.12
2022-09-07T03:39:10.924Z,64.00
2022-09-07T03:42:25.387Z,64.03
2022-09-07T03:45:19.361Z,64.10
2022-09-07T03:47:58.287Z,64.15
2022-09-07T03:51:17.246Z,64.14
2022-09-07T03:54:10.373Z,64.39
2022-09-07T03:56:45.063Z,64.40
2022-09-07T04:00:34.746Z,64.46
2022-09-07T04:04:03.028Z,64.73
2022-09-07T04:07:12.343Z,64.88
2022-09-07T04:09:55.919Z,64.83
2022-09-07T04:13:13.333Z,64.92
2022-09-07T04:15:57.861Z,65.21
2022-09-07T04:18:38.659Z,65.81
2022-09-07T04:21:27.182Z,65.04
2022-09-07T04:24:17.680Z,64.68
2022-09-07T04:26:49.849Z,64.73
2022-09-07T04:29:35.847Z,64.77
2022-09-07T04:32:07.946Z,64.83
2022-09-07T04:34:37.721Z,64.67
2022-09-07T04:37:26.998Z,64.61
2022-09-07T04:40:24.034Z,64.47
2022-09-07T04:43:34.200Z,64.43
2022-09-07T04:46:42.917Z,64.49
2022-09-07T04:49:42.526Z,64.63
2022-09-07T04:52:35.305Z,64.72
2022-09-07T04:55:23.112Z,64.74
2022-09-07T04:58:32.992Z,64.81
2022-09-07T05:01:35.209Z,64.84
2022-09-07T05:04:10.478Z,64.88
2022-09-07T05:06:48.172Z,64.91
2022-09-07T05:09:45.118Z,65.30
2022-09-07T05:12:31.698Z,65.24
2022-09-07T05:15:14.569Z,65.30
2022-09-07T05:17:51.165Z,65.28
2022-09-07T05:20:33.972Z,65.04
2022-09-07T05:23:05.176Z,64.95
2022-09-07T05:25:56.904Z,64.94
2022-09-07T05:28:29.378Z,64.93
2022-09-07T05:31:27.073Z,64.61
2022-09-07T05:34:32.227Z,64.51
2022-09-07T05:37:04.351Z,64.48
2022-09-07T05:39:55.606Z,64.22
2022-09-07T05:42:38.995Z,64.19
2022-09-07T05:45:17.024Z,64.13
2022-09-07T05:47:57.049Z,64.04
2022-09-07T05:50:29.177Z,64.02
2022-09-07T05:53:10.601Z,64.08
2022-09-07T05:55:48.121Z,64.06
2022-09-07T05:58:54.667Z,63.93
2022-09-07T06:01:36.096Z,63.61
2022-09-07T06:04:07.398Z,63.43
2022-09-07T06:06:39.818Z,63.05
2022-09-07T06:12:35.913Z,62.33
2022-09-07T06:15:10.085Z,61.84
2022-09-07T06:17:44.691Z,61.33
2022-09-07T06:20:16.737Z,60.92
2022-09-07T06:23:17.342Z,60.38
2022-09-07T06:25:52.786Z,59.85
2022-09-07T06:29:02.219Z,58.85
2022-09-07T06:34:58.904Z,58.43
2022-09-07T06:37:47.558Z,59.16
2022-09-07T06:40:24.258Z,59.67
2022-09-07T06:42:58.446Z,60.28
2022-09-07T06:45:38.212Z,60.83
2022-09-07T06:48:10.225Z,61.10
2022-09-07T06:50:46.647Z,62.06
2022-09-07T06:53:43.129Z,62.93
2022-09-07T06:56:21.858Z,62.56
2022-09-07T06:59:08.314Z,61.67
2022-09-07T07:02:04.878Z,60.99
2022-09-07T07:04:41.556Z,60.27
2022-09-07T07:07:17.555Z,59.22
2022-09-07T07:10:03.470Z,58.52
2022-09-07T07:13:08.109Z,58.51
2022-09-07T07:15:43.107Z,58.98
2022-09-07T07:18:37.494Z,59.37
2022-09-07T07:21:15.271Z,59.07
2022-09-07T07:24:14.085Z,59.30
2022-09-07T07:26:52.034Z,59.35
2022-09-07T07:29:26.223Z,59.61
2022-09-07T07:31:59.489Z,59.91
2022-09-07T07:35:06.397Z,59.79
2022-09-07T07:37:37.174Z,59.54
2022-09-07T07:40:27.653Z,59.81
2022-09-07T07:43:24.678Z,59.89
2022-09-07T07:45:56.264Z,59.84
2022-09-07T07:48:37.901Z,60.13
2022-09-07T07:51:12.327Z,60.08
2022-09-07T07:53:44.490Z,60.22
2022-09-07T07:56:15.740Z,60.05
2022-09-07T07:58:51.894Z,60.05
2022-09-07T08:01:26.558Z,59.65
2022-09-07T08:04:10.768Z,60.07
2022-09-07T08:06:51.743Z,60.07
2022-09-07T08:09:22.988Z,60.23
2022-09-07T08:11:55.409Z,60.17
2022-09-07T08:14:31.785Z,59.71
2022-09-07T08:17:00.514Z,59.47
2022-09-07T08:19:32.368Z,59.75
2022-09-07T08:22:06.519Z,59.69
2022-09-07T08:24:35.840Z,59.10
2022-09-07T08:27:07.974Z,58.45
2022-09-07T08:29:39.511Z,58.54
2022-09-07T08:32:18.288Z,58.25
2022-09-07T08:34:55.524Z,57.95
2022-09-07T08:37:24.201Z,58.22
2022-09-07T08:39:55.753Z,58.33
2022-09-07T08:42:53.267Z,58.31
2022-09-07T08:45:32.382Z,58.09
2022-09-07T08:48:03.590Z,57.98
2022-09-07T08:50:54.676Z,57.88
2022-09-07T08:53:42.482Z,57.35
2022-09-07T08:56:19.314Z,56.78
2022-09-07T08:58:57.312Z,56.63
2022-09-07T09:01:35.708Z,56.20
2022-09-07T09:04:19.985Z,55.82
2022-09-07T09:07:31.059Z,55.40
2022-09-07T09:10:34.756Z,55.51
2022-09-07T09:13:38.291Z,55.31
2022-09-07T09:16:27.875Z,54.31
2022-09-07T09:19:23.460Z,53.71
2022-09-07T09:22:09.559Z,53.44
2022-09-07T09:24:45.497Z,53.30
2022-09-07T09:27:20.169Z,53.19
2022-09-07T09:29:49.231Z,52.83
2022-09-07T09:32:52.880Z,52.89
2022-09-07T09:35:38.116Z,52.40
2022-09-07T09:38:32.316Z,51.44
2022-09-07T09:41:07.791Z,51.27
2022-09-07T09:43:54.652Z,51.13
2022-09-07T09:46:28.341Z,51.21
2022-09-07T09:49:03.902Z,50.70
2022-09-07T09:54:43.634Z,49.94
2022-09-07T10:04:00.887Z,49.01
2022-09-07T10:06:32.995Z,48.78
2022-09-07T10:09:04.849Z,48.59
2022-09-07T10:14:42.368Z,47.25
2022-09-07T10:17:19.414Z,47.07
2022-09-07T10:19:49.789Z,46.37
2022-09-07T10:22:22.869Z,45.93
2022-09-07T10:24:52.305Z,46.19
2022-09-07T10:27:37.949Z,45.76
2022-09-07T10:30:15.237Z,45.22
2022-09-07T10:32:53.757Z,45.15
2022-09-07T10:35:39.576Z,45.20
2022-09-07T10:38:17.818Z,44.50
2022-09-07T10:41:00.879Z,43.78
2022-09-07T10:43:47.405Z,43.57
2022-09-07T10:50:21.968Z,41.53
2022-09-07T10:53:29.975Z,40.56
2022-09-07T10:56:21.666Z,40.18
2022-09-07T10:59:04.223Z,39.11
2022-09-07T11:01:35.784Z,38.56
2022-09-07T11:04:15.773Z,37.77
2022-09-07T11:06:49.378Z,37.47
2022-09-07T11:09:23.181Z,36.00
2022-09-07T11:12:01.567Z,35.73
2022-09-07T11:14:37.364Z,35.41
2022-09-07T11:17:14.505Z,34.89
2022-09-07T11:20:24.482Z,34.56
2022-09-07T11:23:39.061Z,33.33
2022-09-07T11:26:15.868Z,33.01
2022-09-07T11:32:12.813Z,32.32
2022-09-07T11:35:04.242Z,30.80
2022-09-07T11:37:42.396Z,30.04
2022-09-07T11:40:27.619Z,29.63
2022-09-07T11:43:35.266Z,29.91
2022-09-07T11:46:06.602Z,29.21
2022-09-07T11:48:54.957Z,29.14
2022-09-07T11:51:42.509Z,28.30
2022-09-07T11:54:33.943Z,27.87
2022-09-07T11:57:20.841Z,27.06
2022-09-07T12:00:06.120Z,26.36
2022-09-07T12:03:05.296Z,25.42
2022-09-07T12:05:58.478Z,24.41
2022-09-07T12:08:54.435Z,23.29
2022-09-07T12:11:54.220Z,22.84
2022-09-07T12:15:01.937Z,22.18
2022-09-07T12:17:49.695Z,21.77
2022-09-07T12:20:24.070Z,20.88
2022-09-07T12:23:04.468Z,20.09
2022-09-07T12:25:35.298Z,20.68
2022-09-07T12:28:03.793Z,20.68
2022-09-07T12:30:35.506Z,20.44
2022-09-07T12:33:20.191Z,20.23
2022-09-07T12:35:48.850Z,20.05
2022-09-07T12:38:17.089Z,19.96
2022-09-07T12:40:49.225Z,19.70
2022-09-07T12:43:17.651Z,19.52
2022-09-07T12:45:46.204Z,19.80
2022-09-07T12:48:17.333Z,20.02
2022-09-07T12:51:13.467Z,20.08
2022-09-07T12:54:06.923Z,20.05
2022-09-07T12:56:43.906Z,19.94
2022-09-07T12:59:38.591Z,20.05
2022-09-07T13:02:10.593Z,20.02
2022-09-07T13:05:06.695Z,20.42
2022-09-07T13:08:09.375Z,20.38
2022-09-07T13:10:42.942Z,20.44
2022-09-07T13:16:18.213Z,20.96
2022-09-07T13:18:47.714Z,21.09
2022-09-07T13:21:18.214Z,21.48
2022-09-07T13:27:35.380Z,23.06
2022-09-07T13:30:16.690Z,24.02
2022-09-07T13:35:35.127Z,24.59
2022-09-07T13:38:04.949Z,24.44
2022-09-07T13:40:45.073Z,24.64
2022-09-07T13:43:21.382Z,24.56
2022-09-07T13:45:55.960Z,24.47
2022-09-07T13:48:28.146Z,24.13
2022-09-07T13:51:22.022Z,24.15
2022-09-07T13:54:13.337Z,23.67
2022-09-07T13:56:45.000Z,23.77
2022-09-07T13:59:24.126Z,24.11
2022-09-07T14:01:52.873Z,24.14
2022-09-07T14:04:33.582Z,24.25
2022-09-07T14:07:04.636Z,24.38
2022-09-07T14:09:34.747Z,24.49
2022-09-07T14:12:13.978Z,24.68
2022-09-07T14:14:42.550Z,25.23
2022-09-07T14:17:20.152Z,25.85
2022-09-07T14:19:50.859Z,26.53
2022-09-07T14:22:22.773Z,27.19
2022-09-07T14:24:57.015Z,27.80
2022-09-07T14:27:42.439Z,28.58
2022-09-07T14:30:23.452Z,29.20
2022-09-07T14:33:03.365Z,29.79
2022-09-07T14:35:38.575Z,30.15
2022-09-07T14:39:13.312Z,30.52
2022-09-07T14:41:12.458Z,30.93
2022-09-07T14:43:55.675Z,31.09
2022-09-07T14:46:29.264Z,31.06
2022-09-07T14:49:18.187Z,31.43
2022-09-07T14:51:48.422Z,31.32
2022-09-07T14:54:23.914Z,31.17
2022-09-07T14:57:20.007Z,31.24
2022-09-07T15:00:16.177Z,31.83
2022-09-07T15:02:45.439Z,31.87
2022-09-07T15:05:47.441Z,31.74
2022-09-07T15:08:42.838Z,31.35
2022-09-07T15:11:33.749Z,31.31
2022-09-07T15:14:20.229Z,31.49
2022-09-07T15:19:50.553Z,31.92
2022-09-07T15:22:19.392Z,32.59
2022-09-07T15:24:51.065Z,32.93
2022-09-07T15:27:30.152Z,33.34
2022-09-07T15:30:11.488Z,33.84
2022-09-07T15:32:41.441Z,34.52
2022-09-07T15:35:10.837Z,34.68
2022-09-07T15:40:38.404Z,35.52
2022-09-07T15:43:19.886Z,36.07
2022-09-07T15:45:51.593Z,36.45
2022-09-07T15:48:23.286Z,36.54
2022-09-07T15:50:53.978Z,36.68
2022-09-07T15:56:20.470Z,36.72
2022-09-07T15:58:56.138Z,36.66
2022-09-07T16:04:20.918Z,36.57
2022-09-07T16:06:52.845Z,36.59
2022-09-07T16:09:41.780Z,36.83
2022-09-07T16:15:04.377Z,37.33
2022-09-07T16:17:37.045Z,37.63
2022-09-07T16:20:10.592Z,37.86
2022-09-07T16:25:33.873Z,38.76
2022-09-07T16:28:05.695Z,39.26
2022-09-07T16:30:34.352Z,39.69
2022-09-07T16:33:08.717Z,40.28
2022-09-07T16:35:55.697Z,40.64
2022-09-07T16:41:20.644Z,41.68
2022-09-07T16:44:08.069Z,41.93
2022-09-07T16:46:39.867Z,42.51
2022-09-07T16:49:14.083Z,43.08
2022-09-07T16:51:42.699Z,43.56
2022-09-07T16:54:21.204Z,43.91
2022-09-07T16:56:55.052Z,44.28
2022-09-07T16:59:33.949Z,44.63
2022-09-07T17:02:03.245Z,44.90
2022-09-07T17:04:32.431Z,45.46
2022-09-07T17:07:24.275Z,46.03
2022-09-07T17:09:53.537Z,46.41
2022-09-07T17:12:21.893Z,46.99
2022-09-07T17:15:01.083Z,47.49
2022-09-07T17:17:32.553Z,47.91
2022-09-07T17:20:01.658Z,48.34
2022-09-07T17:22:30.621Z,48.80
2022-09-07T17:25:05.165Z,49.00
2022-09-07T17:27:41.133Z,49.11
2022-09-07T17:30:10.605Z,49.83
2022-09-07T17:32:39.954Z,50.15
2022-09-07T17:35:17.911Z,50.63
2022-09-07T17:37:47.008Z,51.21
2022-09-07T17:40:16.467Z,51.71
2022-09-07T17:46:04.628Z,52.25
2022-09-07T17:48:42.984Z,52.36
2022-09-07T17:51:25.847Z,52.91
2022-09-07T17:54:03.155Z,53.05
2022-09-07T17:56:37.478Z,53.45
2022-09-07T18:02:27.547Z,53.91
2022-09-07T18:04:56.694Z,54.25
2022-09-07T18:07:35.826Z,54.65
2022-09-07T18:10:17.022Z,54.59
2022-09-07T18:12:54.205Z,54.82
2022-09-07T18:15:25.553Z,55.10
2022-09-07T18:18:05.505Z,55.47
2022-09-07T18:20:40.742Z,55.46
2022-09-07T18:23:13.523Z,55.99
2022-09-07T18:26:06.684Z,56.22
2022-09-07T18:32:02.508Z,56.84
2022-09-07T18:34:50.743Z,57.16
2022-09-07T18:37:22.910Z,57.45
2022-09-07T18:39:52.290Z,57.79
2022-09-07T18:42:23.586Z,57.97
2022-09-07T18:45:28.556Z,58.19
2022-09-07T18:48:03.038Z,58.27
2022-09-07T18:50:58.296Z,58.86
2022-09-07T18:53:27.861Z,58.71
2022-09-07T18:56:20.691Z,58.97
2022-09-07T18:59:21.960Z,59.04
2022-09-07T19:01:56.687Z,59.49
2022-09-07T19:07:29.893Z,59.87
2022-09-07T19:10:16.923Z,59.93
2022-09-07T19:13:14.990Z,60.24
2022-09-07T19:15:51.408Z,60.42
2022-09-07T19:18:25.898Z,61.11
2022-09-07T19:21:16.674Z,61.37
2022-09-07T19:24:06.051Z,62.48
2022-09-07T19:26:40.372Z,63.48
2022-09-07T19:29:16.078Z,62.91
2022-09-07T19:32:09.129Z,62.48
2022-09-07T19:34:56.327Z,62.16
2022-09-07T19:37:33.070Z,61.63
2022-09-07T19:40:28.328Z,60.96
2022-09-07T19:43:10.173Z,59.93
2022-09-07T19:45:47.591Z,59.10
2022-09-07T19:48:19.321Z,59.30
2022-09-07T19:50:57.632Z,59.81
2022-09-07T19:53:31.249Z,60.23
2022-09-07T19:56:06.804Z,60.59
2022-09-07T19:58:36.938Z,61.09
2022-09-07T20:01:48.240Z,61.35
2022-09-07T20:04:28.492Z,62.80
2022-09-07T20:07:00.626Z,63.46
2022-09-07T20:09:29.702Z,63.22
2022-09-07T20:12:10.678Z,62.85
2022-09-07T20:14:55.954Z,62.67
2022-09-07T20:17:35.511Z,62.54
2022-09-07T20:20:17.696Z,62.42
2022-09-07T20:22:49.045Z,61.99
2022-09-07T20:25:30.836Z,61.96
2022-09-07T20:27:59.756Z,61.94
2022-09-07T20:30:51.578Z,61.76
2022-09-07T20:33:38.139Z,61.95
2022-09-07T20:36:12.228Z,61.76
2022-09-07T20:38:55.340Z,61.52
2022-09-07T20:41:46.866Z,61.47
2022-09-07T20:44:19.011Z,61.53
2022-09-07T20:47:02.259Z,61.40
2022-09-07T20:49:40.256Z,61.68
2022-09-07T20:52:37.330Z,61.63
2022-09-07T20:55:12.198Z,61.53
2022-09-07T20:57:43.445Z,61.22
2022-09-07T21:00:43.439Z,61.27
2022-09-07T21:03:32.345Z,61.23
2022-09-07T21:06:26.421Z,61.26
2022-09-07T21:09:01.849Z,61.48
2022-09-07T21:11:44.207Z,61.62
2022-09-07T21:14:25.127Z,61.80
2022-09-07T21:17:15.829Z,61.98
2022-09-07T21:20:24.841Z,62.42
2022-09-07T21:22:56.207Z,62.34
2022-09-07T21:25:34.006Z,62.59
2022-09-07T21:28:07.728Z,62.58
2022-09-07T21:30:39.147Z,62.73
2022-09-07T21:33:13.513Z,63.04
2022-09-07T21:35:42.635Z,63.17
2022-09-07T21:38:17.493Z,63.17
2022-09-07T21:40:49.673Z,63.25
2022-09-07T21:43:21.462Z,63.56
2022-09-07T21:45:52.477Z,64.11
2022-09-07T21:49:00.786Z,63.88
2022-09-07T21:51:41.044Z,63.85
2022-09-07T21:54:19.291Z,63.73
2022-09-07T21:56:59.457Z,63.67
2022-09-07T21:59:33.995Z,63.70
2022-09-07T22:02:12.365Z,63.65
2022-09-07T22:04:55.367Z,63.76
2022-09-07T22:07:27.042Z,63.68
2022-09-07T22:10:10.962Z,63.69
2022-09-07T22:12:42.715Z,63.77
2022-09-07T22:15:14.404Z,63.72
2022-09-07T22:17:55.403Z,63.66
2022-09-07T22:20:26.446Z,63.69
2022-09-07T22:22:55.283Z,63.57
2022-09-07T22:25:43.693Z,63.53
2022-09-07T22:28:24.060Z,63.71
2022-09-07T22:30:57.404Z,63.56
2022-09-07T22:33:56.419Z,63.57
2022-09-07T22:36:32.696Z,63.55
2022-09-07T22:39:16.920Z,63.57
2022-09-07T22:41:58.481Z,63.67
2022-09-07T22:45:01.473Z,63.87
2022-09-07T22:47:42.235Z,64.23
2022-09-07T22:50:41.226Z,64.23
2022-09-07T22:53:19.134Z,64.38
2022-09-07T22:56:00.401Z,64.34
2022-09-07T22:59:14.456Z,64.35
2022-09-07T23:01:58.617Z,64.60
2022-09-07T23:04:59.242Z,64.80
2022-09-07T23:07:40.228Z,64.83
2022-09-07T23:10:23.657Z,65.04
2022-09-07T23:13:04.927Z,65.12
2022-09-07T23:15:57.606Z,65.18
2022-09-07T23:19:02.739Z,65.19
2022-09-07T23:21:31.924Z,65.32
2022-09-07T23:24:04.397Z,65.05
2022-09-07T23:26:41.784Z,65.20
2022-09-07T23:29:21.326Z,65.28
2022-09-07T23:32:16.228Z,65.47
2022-09-07T23:34:54.566Z,65.76
2022-09-07T23:37:38.024Z,65.88
2022-09-07T23:40:30.239Z,66.10
2022-09-07T23:43:16.201Z,66.22
2022-09-07T23:46:08.057Z,66.26
2022-09-07T23:48:46.749Z,66.46
2022-09-07T23:51:23.528Z,66.39
2022-09-07T23:54:17.195Z,66.40
2022-09-07T23:57:11.189Z,66.42
2022-09-07T23:59:48.541Z,66.26
